Baldwin Harbor, New York
Current Conditions -  °F | °C
As of 5:51 PM on Tuesday 21 Oct 2014 (Local Time) from KJFK Reporting Station
Scattered Clouds Scattered Clouds  
Wind Chill: 16°   Ceiling: Unl
Heat Index: 16°   Visibility: 10mi
Dew Point: 11°   Wind: 5mph
Humidity: 72%   Direction: 70°ENE
Pressure: 29.84"   Gusts: NA
Location:  40.6539°N, 73.609°W
Report Text: KJFK 212151Z 07004KT 10SM FEW020 SCT035 SCT110 SCT250 16/11 A2984 RMK AO2 SLP106 T01610111
Loading
Personal Weather Stations






























Interactive Weather Map
Tropical Storm Tracking
New forecast layout! Learn more

10-Day Weather Forecast

Advertisements
Track Severe Weather on mobile